Terminal Aerodrome Forecast
Issued by NWS Lubbock, TX

Home | Current Version | Previous Version | Text Only | Print | Product List | Glossary On
Versions: 1 2 3 4 5 6 7 8 9 10 11 12 13
000
FTUS44 KLUB 300520
TAFLBB
TAF
KLBB 300520Z 3006/0106 04007KT P6SM SCT150 BKN200
     FM301500 23010KT P6SM FEW150=

USA.gov is the U.S. government's official web portal to all federal, state and local government web resources and services.